sensor_id;sensor_type;location;lat;lon;timestamp;pressure;altitude;pressure_sealevel;temperature;humidity
30110;BME280;14965;50.660;13.226;2023-02-05T00:01:37;96760.81;;;-2.83;92.89
30110;BME280;14965;50.660;13.226;2023-02-05T00:04:03;96762.72;;;-2.84;92.29
30110;BME280;14965;50.660;13.226;2023-02-05T00:06:29;96759.31;;;-2.89;91.36
30110;BME280;14965;50.660;13.226;2023-02-05T00:08:55;96750.13;;;-2.88;90.94
30110;BME280;14965;50.660;13.226;2023-02-05T00:11:22;96742.91;;;-2.93;90.22
30110;BME280;14965;50.660;13.226;2023-02-05T00:13:48;96751.75;;;-3.01;88.86
30110;BME280;14965;50.660;13.226;2023-02-05T00:16:18;96747.69;;;-3.12;87.89
30110;BME280;14965;50.660;13.226;2023-02-05T00:18:45;96739.50;;;-3.21;88.06
30110;BME280;14965;50.660;13.226;2023-02-05T00:21:12;96746.00;;;-3.22;88.01
30110;BME280;14965;50.660;13.226;2023-02-05T00:23:39;96749.22;;;-3.20;88.70
30110;BME280;14965;50.660;13.226;2023-02-05T00:26:06;96752.50;;;-3.23;89.13
30110;BME280;14965;50.660;13.226;2023-02-05T00:28:33;96749.81;;;-3.23;89.40
30110;BME280;14965;50.660;13.226;2023-02-05T00:31:04;96766.53;;;-3.21;89.96
30110;BME280;14965;50.660;13.226;2023-02-05T00:33:32;96762.41;;;-3.18;89.97
30110;BME280;14965;50.660;13.226;2023-02-05T00:35:58;96759.09;;;-3.15;90.16
30110;BME280;14965;50.660;13.226;2023-02-05T00:38:24;96758.31;;;-3.16;89.97
30110;BME280;14965;50.660;13.226;2023-02-05T00:40:50;96757.00;;;-3.18;89.81
30110;BME280;14965;50.660;13.226;2023-02-05T00:43:15;96763.91;;;-3.26;89.99
30110;BME280;14965;50.660;13.226;2023-02-05T00:45:41;96764.53;;;-3.29;90.45
30110;BME280;14965;50.660;13.226;2023-02-05T00:48:07;96765.81;;;-3.27;90.58
30110;BME280;14965;50.660;13.226;2023-02-05T00:50:35;96761.13;;;-3.21;91.03
30110;BME280;14965;50.660;13.226;2023-02-05T00:53:01;96764.09;;;-3.22;91.03
30110;BME280;14965;50.660;13.226;2023-02-05T00:55:27;96767.44;;;-3.26;90.58
30110;BME280;14965;50.660;13.226;2023-02-05T00:57:53;96770.44;;;-3.27;90.50
30110;BME280;14965;50.660;13.226;2023-02-05T01:00:20;96767.25;;;-3.29;91.09
30110;BME280;14965;50.660;13.226;2023-02-05T01:02:45;96768.34;;;-3.30;91.37
30110;BME280;14965;50.660;13.226;2023-02-05T01:05:11;96762.63;;;-3.29;91.33
30110;BME280;14965;50.660;13.226;2023-02-05T01:07:39;96765.03;;;-3.27;91.51
30110;BME280;14965;50.660;13.226;2023-02-05T01:10:07;96761.84;;;-3.29;92.00
30110;BME280;14965;50.660;13.226;2023-02-05T01:12:33;96757.34;;;-3.34;91.78
30110;BME280;14965;50.660;13.226;2023-02-05T01:14:59;96771.13;;;-3.35;91.94
30110;BME280;14965;50.660;13.226;2023-02-05T01:17:25;96763.66;;;-3.38;91.58
30110;BME280;14965;50.660;13.226;2023-02-05T01:19:51;96772.03;;;-3.40;91.81
30110;BME280;14965;50.660;13.226;2023-02-05T01:22:17;96754.84;;;-3.44;91.42
30110;BME280;14965;50.660;13.226;2023-02-05T01:24:44;96748.75;;;-3.49;91.44
30110;BME280;14965;50.660;13.226;2023-02-05T01:27:10;96745.53;;;-3.52;91.32
30110;BME280;14965;50.660;13.226;2023-02-05T01:29:35;96741.06;;;-3.56;91.72
30110;BME280;14965;50.660;13.226;2023-02-05T01:32:01;96737.06;;;-3.59;91.61
30110;BME280;14965;50.660;13.226;2023-02-05T01:34:27;96731.47;;;-3.62;91.40
30110;BME280;14965;50.660;13.226;2023-02-05T01:36:53;96739.38;;;-3.66;91.11
30110;BME280;14965;50.660;13.226;2023-02-05T01:39:19;96737.38;;;-3.74;91.21
30110;BME280;14965;50.660;13.226;2023-02-05T01:41:46;96727.28;;;-3.82;90.81
30110;BME280;14965;50.660;13.226;2023-02-05T01:44:15;96733.69;;;-3.92;90.46
30110;BME280;14965;50.660;13.226;2023-02-05T01:46:43;96734.59;;;-3.96;90.56
30110;BME280;14965;50.660;13.226;2023-02-05T01:49:15;96733.38;;;-4.04;90.03
30110;BME280;14965;50.660;13.226;2023-02-05T01:51:44;96728.34;;;-4.11;90.05
30110;BME280;14965;50.660;13.226;2023-02-05T01:54:12;96709.56;;;-4.16;90.11
30110;BME280;14965;50.660;13.226;2023-02-05T01:56:43;96710.78;;;-4.22;89.95
30110;BME280;14965;50.660;13.226;2023-02-05T01:59:17;96710.84;;;-4.27;90.04
30110;BME280;14965;50.660;13.226;2023-02-05T02:01:43;96715.25;;;-4.31;89.87
30110;BME280;14965;50.660;13.226;2023-02-05T02:04:11;96709.94;;;-4.36;89.60
30110;BME280;14965;50.660;13.226;2023-02-05T02:06:40;96712.16;;;-4.38;89.67
30110;BME280;14965;50.660;13.226;2023-02-05T02:09:06;96696.66;;;-4.46;89.56
30110;BME280;14965;50.660;13.226;2023-02-05T02:11:38;96682.44;;;-4.52;89.44
30110;BME280;14965;50.660;13.226;2023-02-05T02:14:08;96686.03;;;-4.57;89.66
30110;BME280;14965;50.660;13.226;2023-02-05T02:16:38;96674.56;;;-4.62;89.45
30110;BME280;14965;50.660;13.226;2023-02-05T02:19:12;96671.75;;;-4.71;89.73
30110;BME280;14965;50.660;13.226;2023-02-05T02:22:21;96667.13;;;-4.84;89.97
30110;BME280;14965;50.660;13.226;2023-02-05T02:25:29;96675.75;;;-5.01;89.72
30110;BME280;14965;50.660;13.226;2023-02-05T02:28:06;96673.22;;;-5.11;89.86
30110;BME280;14965;50.660;13.226;2023-02-05T02:30:41;96669.50;;;-5.15;90.12
30110;BME280;14965;50.660;13.226;2023-02-05T02:33:16;96661.00;;;-5.22;90.10
30110;BME280;14965;50.660;13.226;2023-02-05T02:35:56;96656.06;;;-5.34;90.03
30110;BME280;14965;50.660;13.226;2023-02-05T02:38:30;96653.81;;;-5.46;90.00
30110;BME280;14965;50.660;13.226;2023-02-05T02:41:03;96649.59;;;-5.52;89.94
30110;BME280;14965;50.660;13.226;2023-02-05T02:43:43;96648.06;;;-5.58;90.09
30110;BME280;14965;50.660;13.226;2023-02-05T02:46:19;96643.00;;;-5.60;89.98
30110;BME280;14965;50.660;13.226;2023-02-05T02:48:49;96649.44;;;-5.61;89.82
30110;BME280;14965;50.660;13.226;2023-02-05T02:51:18;96650.03;;;-5.64;89.73
30110;BME280;14965;50.660;13.226;2023-02-05T02:53:48;96646.34;;;-5.68;89.86
30110;BME280;14965;50.660;13.226;2023-02-05T02:56:18;96643.41;;;-5.71;89.29
30110;BME280;14965;50.660;13.226;2023-02-05T02:58:50;96638.13;;;-5.77;89.44
30110;BME280;14965;50.660;13.226;2023-02-05T03:01:22;96640.13;;;-5.87;89.44
30110;BME280;14965;50.660;13.226;2023-02-05T03:03:56;96632.44;;;-5.94;89.47
30110;BME280;14965;50.660;13.226;2023-02-05T03:06:24;96633.03;;;-5.97;89.32
30110;BME280;14965;50.660;13.226;2023-02-05T03:08:55;96622.31;;;-6.02;89.46
30110;BME280;14965;50.660;13.226;2023-02-05T03:11:23;96626.47;;;-6.10;89.36
30110;BME280;14965;50.660;13.226;2023-02-05T03:13:51;96635.28;;;-6.28;89.15
30110;BME280;14965;50.660;13.226;2023-02-05T03:16:19;96633.06;;;-6.45;88.72
30110;BME280;14965;50.660;13.226;2023-02-05T03:18:46;96621.84;;;-6.52;89.55
30110;BME280;14965;50.660;13.226;2023-02-05T03:21:17;96622.69;;;-6.52;89.63
30110;BME280;14965;50.660;13.226;2023-02-05T03:23:43;96624.03;;;-6.54;88.99
30110;BME280;14965;50.660;13.226;2023-02-05T03:26:25;96616.59;;;-6.62;88.91
30110;BME280;14965;50.660;13.226;2023-02-05T03:28:54;96617.16;;;-6.65;88.07
30110;BME280;14965;50.660;13.226;2023-02-05T03:31:28;96615.56;;;-6.66;88.47
30110;BME280;14965;50.660;13.226;2023-02-05T03:34:14;96619.34;;;-6.67;88.48
30110;BME280;14965;50.660;13.226;2023-02-05T03:36:56;96623.13;;;-6.68;88.21
30110;BME280;14965;50.660;13.226;2023-02-05T03:39:39;96627.41;;;-6.67;87.97
30110;BME280;14965;50.660;13.226;2023-02-05T03:42:19;96620.44;;;-6.68;88.17
30110;BME280;14965;50.660;13.226;2023-02-05T03:45:11;96618.81;;;-6.69;87.92
30110;BME280;14965;50.660;13.226;2023-02-05T03:48:00;96628.78;;;-6.70;88.31
30110;BME280;14965;50.660;13.226;2023-02-05T03:50:35;96618.09;;;-6.75;87.86
30110;BME280;14965;50.660;13.226;2023-02-05T03:53:12;96636.16;;;-6.81;87.83
30110;BME280;14965;50.660;13.226;2023-02-05T03:55:44;96645.88;;;-6.85;88.23
30110;BME280;14965;50.660;13.226;2023-02-05T03:58:18;96641.06;;;-6.88;88.56
30110;BME280;14965;50.660;13.226;2023-02-05T04:00:48;96646.97;;;-6.91;88.03
30110;BME280;14965;50.660;13.226;2023-02-05T04:03:14;96639.78;;;-6.95;88.22
30110;BME280;14965;50.660;13.226;2023-02-05T04:05:40;96638.69;;;-6.94;88.44
30110;BME280;14965;50.660;13.226;2023-02-05T04:08:06;96638.97;;;-6.96;88.44
30110;BME280;14965;50.660;13.226;2023-02-05T04:10:32;96640.88;;;-6.96;88.65
30110;BME280;14965;50.660;13.226;2023-02-05T04:12:58;96638.69;;;-6.94;88.66
30110;BME280;14965;50.660;13.226;2023-02-05T04:15:25;96640.31;;;-6.93;88.14
30110;BME280;14965;50.660;13.226;2023-02-05T04:17:52;96635.72;;;-6.93;88.64
30110;BME280;14965;50.660;13.226;2023-02-05T04:20:18;96633.03;;;-6.93;88.21
30110;BME280;14965;50.660;13.226;2023-02-05T04:22:44;96626.88;;;-6.93;87.94
30110;BME280;14965;50.660;13.226;2023-02-05T04:25:10;96624.47;;;-6.95;87.27
30110;BME280;14965;50.660;13.226;2023-02-05T04:27:35;96619.88;;;-6.94;87.30
30110;BME280;14965;50.660;13.226;2023-02-05T04:30:02;96628.53;;;-6.97;87.19
30110;BME280;14965;50.660;13.226;2023-02-05T04:32:28;96621.59;;;-7.04;87.14
30110;BME280;14965;50.660;13.226;2023-02-05T04:34:55;96622.97;;;-7.06;86.80
30110;BME280;14965;50.660;13.226;2023-02-05T04:37:21;96628.59;;;-7.08;86.84
30110;BME280;14965;50.660;13.226;2023-02-05T04:39:47;96638.06;;;-7.15;86.72
30110;BME280;14965;50.660;13.226;2023-02-05T04:42:13;96633.31;;;-7.23;86.55
30110;BME280;14965;50.660;13.226;2023-02-05T04:44:39;96652.38;;;-7.25;86.46
30110;BME280;14965;50.660;13.226;2023-02-05T04:47:04;96642.19;;;-7.28;86.74
30110;BME280;14965;50.660;13.226;2023-02-05T04:49:31;96646.25;;;-7.31;86.87
30110;BME280;14965;50.660;13.226;2023-02-05T04:51:58;96645.72;;;-7.33;87.46
30110;BME280;14965;50.660;13.226;2023-02-05T04:54:24;96646.50;;;-7.27;87.66
30110;BME280;14965;50.660;13.226;2023-02-05T04:56:50;96640.81;;;-7.20;87.67
30110;BME280;14965;50.660;13.226;2023-02-05T04:59:16;96641.34;;;-7.18;87.30
30110;BME280;14965;50.660;13.226;2023-02-05T05:01:42;96648.53;;;-7.14;87.62
30110;BME280;14965;50.660;13.226;2023-02-05T05:04:08;96647.44;;;-7.13;87.10
30110;BME280;14965;50.660;13.226;2023-02-05T05:06:34;96648.78;;;-7.10;87.00
30110;BME280;14965;50.660;13.226;2023-02-05T05:09:01;96649.84;;;-7.11;87.00
30110;BME280;14965;50.660;13.226;2023-02-05T05:11:27;96655.03;;;-7.20;86.76
30110;BME280;14965;50.660;13.226;2023-02-05T05:13:52;96648.38;;;-7.28;86.62
30110;BME280;14965;50.660;13.226;2023-02-05T05:16:19;96651.34;;;-7.29;86.67
30110;BME280;14965;50.660;13.226;2023-02-05T05:18:44;96652.13;;;-7.29;86.74
30110;BME280;14965;50.660;13.226;2023-02-05T05:21:11;96652.94;;;-7.28;86.99
30110;BME280;14965;50.660;13.226;2023-02-05T05:23:37;96654.03;;;-7.29;86.66
30110;BME280;14965;50.660;13.226;2023-02-05T05:26:06;96662.88;;;-7.29;86.92
30110;BME280;14965;50.660;13.226;2023-02-05T05:28:34;96664.47;;;-7.28;86.44
30110;BME280;14965;50.660;13.226;2023-02-05T05:31:06;96659.94;;;-7.27;86.18
30110;BME280;14965;50.660;13.226;2023-02-05T05:33:32;96670.09;;;-7.24;86.48
30110;BME280;14965;50.660;13.226;2023-02-05T05:35:58;96677.59;;;-7.21;86.81
30110;BME280;14965;50.660;13.226;2023-02-05T05:38:24;96672.47;;;-7.17;86.73
30110;BME280;14965;50.660;13.226;2023-02-05T05:40:50;96668.41;;;-7.15;87.06
30110;BME280;14965;50.660;13.226;2023-02-05T05:43:20;96668.94;;;-7.13;86.48
30110;BME280;14965;50.660;13.226;2023-02-05T05:45:45;96670.47;;;-7.07;86.43
30110;BME280;14965;50.660;13.226;2023-02-05T05:48:11;96665.03;;;-6.96;86.63
30110;BME280;14965;50.660;13.226;2023-02-05T05:50:37;96666.31;;;-6.89;86.83
30110;BME280;14965;50.660;13.226;2023-02-05T05:53:03;96660.88;;;-6.84;87.10
30110;BME280;14965;50.660;13.226;2023-02-05T05:55:29;96658.50;;;-6.85;86.63
30110;BME280;14965;50.660;13.226;2023-02-05T05:57:54;96658.50;;;-6.85;86.77
30110;BME280;14965;50.660;13.226;2023-02-05T06:00:22;96654.16;;;-6.81;86.98
30110;BME280;14965;50.660;13.226;2023-02-05T06:02:47;96659.47;;;-6.76;86.76
30110;BME280;14965;50.660;13.226;2023-02-05T06:05:13;96665.88;;;-6.72;87.29
30110;BME280;14965;50.660;13.226;2023-02-05T06:07:39;96672.28;;;-6.68;87.01
30110;BME280;14965;50.660;13.226;2023-02-05T06:10:06;96677.63;;;-6.63;86.67
30110;BME280;14965;50.660;13.226;2023-02-05T06:12:32;96677.84;;;-6.59;86.90
30110;BME280;14965;50.660;13.226;2023-02-05T06:14:58;96678.34;;;-6.57;86.58
30110;BME280;14965;50.660;13.226;2023-02-05T06:17:25;96674.00;;;-6.53;86.62
30110;BME280;14965;50.660;13.226;2023-02-05T06:19:51;96680.41;;;-6.49;86.85
30110;BME280;14965;50.660;13.226;2023-02-05T06:22:17;96685.22;;;-6.46;86.72
30110;BME280;14965;50.660;13.226;2023-02-05T06:24:42;96684.38;;;-6.41;86.63
30110;BME280;14965;50.660;13.226;2023-02-05T06:27:08;96676.78;;;-6.34;87.10
30110;BME280;14965;50.660;13.226;2023-02-05T06:29:34;96674.31;;;-6.31;87.04
30110;BME280;14965;50.660;13.226;2023-02-05T06:32:00;96681.00;;;-6.28;86.99
30110;BME280;14965;50.660;13.226;2023-02-05T06:34:27;96681.28;;;-6.30;86.76
30110;BME280;14965;50.660;13.226;2023-02-05T06:36:53;96688.81;;;-6.27;86.92
30110;BME280;14965;50.660;13.226;2023-02-05T06:39:19;96681.47;;;-6.21;86.91
30110;BME280;14965;50.660;13.226;2023-02-05T06:41:44;96679.50;;;-6.15;87.31
30110;BME280;14965;50.660;13.226;2023-02-05T06:44:10;96673.78;;;-6.09;86.82
30110;BME280;14965;50.660;13.226;2023-02-05T06:46:36;96683.13;;;-6.01;87.00
30110;BME280;14965;50.660;13.226;2023-02-05T06:49:02;96672.00;;;-5.94;86.58
30110;BME280;14965;50.660;13.226;2023-02-05T06:51:29;96680.00;;;-5.89;86.40
30110;BME280;14965;50.660;13.226;2023-02-05T06:53:59;96682.31;;;-5.83;86.14
30110;BME280;14965;50.660;13.226;2023-02-05T06:56:25;96676.94;;;-5.83;86.32
30110;BME280;14965;50.660;13.226;2023-02-05T06:58:57;96686.03;;;-5.79;86.10
30110;BME280;14965;50.660;13.226;2023-02-05T07:01:23;96691.34;;;-5.73;86.23
30110;BME280;14965;50.660;13.226;2023-02-05T07:03:49;96684.28;;;-5.69;85.91
30110;BME280;14965;50.660;13.226;2023-02-05T07:06:15;96665.38;;;-5.64;85.77
30110;BME280;14965;50.660;13.226;2023-02-05T07:08:42;96674.47;;;-5.60;85.80
30110;BME280;14965;50.660;13.226;2023-02-05T07:11:08;96672.78;;;-5.56;85.59
30110;BME280;14965;50.660;13.226;2023-02-05T07:13:34;96663.13;;;-5.57;85.60
30110;BME280;14965;50.660;13.226;2023-02-05T07:16:03;96657.97;;;-5.54;86.08
30110;BME280;14965;50.660;13.226;2023-02-05T07:18:31;96650.03;;;-5.45;85.86
30110;BME280;14965;50.660;13.226;2023-02-05T07:20:57;96649.59;;;-5.33;85.84
30110;BME280;14965;50.660;13.226;2023-02-05T07:23:23;96653.91;;;-5.18;85.77
30110;BME280;14965;50.660;13.226;2023-02-05T07:25:50;96644.00;;;-5.04;85.41
30110;BME280;14965;50.660;13.226;2023-02-05T07:28:16;96650.22;;;-4.90;84.96
30110;BME280;14965;50.660;13.226;2023-02-05T07:30:42;96652.66;;;-4.74;84.64
30110;BME280;14965;50.660;13.226;2023-02-05T07:33:08;96654.88;;;-4.63;84.08
30110;BME280;14965;50.660;13.226;2023-02-05T07:35:36;96652.88;;;-4.57;83.42
30110;BME280;14965;50.660;13.226;2023-02-05T07:38:02;96648.41;;;-4.48;83.38
30110;BME280;14965;50.660;13.226;2023-02-05T07:40:28;96659.50;;;-4.36;83.40
30110;BME280;14965;50.660;13.226;2023-02-05T07:42:55;96659.00;;;-4.24;83.42
30110;BME280;14965;50.660;13.226;2023-02-05T07:45:21;96654.50;;;-4.15;83.22
30110;BME280;14965;50.660;13.226;2023-02-05T07:47:47;96665.13;;;-4.05;83.28
30110;BME280;14965;50.660;13.226;2023-02-05T07:50:13;96663.00;;;-3.94;83.15
30110;BME280;14965;50.660;13.226;2023-02-05T07:52:39;96673.59;;;-3.84;83.15
30110;BME280;14965;50.660;13.226;2023-02-05T07:55:05;96664.28;;;-3.78;83.32
30110;BME280;14965;50.660;13.226;2023-02-05T07:57:31;96674.69;;;-3.71;83.17
30110;BME280;14965;50.660;13.226;2023-02-05T07:59:58;96674.88;;;-3.67;83.23
30110;BME280;14965;50.660;13.226;2023-02-05T08:02:24;96679.16;;;-3.66;83.25
30110;BME280;14965;50.660;13.226;2023-02-05T08:04:50;96665.88;;;-3.63;83.31
30110;BME280;14965;50.660;13.226;2023-02-05T08:07:16;96660.34;;;-3.58;83.93
30110;BME280;14965;50.660;13.226;2023-02-05T08:09:42;96659.31;;;-3.48;83.82
30110;BME280;14965;50.660;13.226;2023-02-05T08:12:08;96645.41;;;-3.41;83.77
30110;BME280;14965;50.660;13.226;2023-02-05T08:14:35;96643.88;;;-3.34;83.10
30110;BME280;14965;50.660;13.226;2023-02-05T08:17:03;96648.06;;;-3.28;82.42
30110;BME280;14965;50.660;13.226;2023-02-05T08:19:29;96640.31;;;-3.20;81.95
30110;BME280;14965;50.660;13.226;2023-02-05T08:21:55;96636.88;;;-3.12;81.81
30110;BME280;14965;50.660;13.226;2023-02-05T08:24:20;96636.81;;;-2.98;81.58
30110;BME280;14965;50.660;13.226;2023-02-05T08:26:46;96627.53;;;-2.84;81.68
30110;BME280;14965;50.660;13.226;2023-02-05T08:29:13;96625.88;;;-2.71;80.89
30110;BME280;14965;50.660;13.226;2023-02-05T08:31:38;96619.34;;;-2.70;80.55
30110;BME280;14965;50.660;13.226;2023-02-05T08:34:06;96605.38;;;-2.63;80.59
30110;BME280;14965;50.660;13.226;2023-02-05T08:36:31;96615.59;;;-2.52;80.28
30110;BME280;14965;50.660;13.226;2023-02-05T08:38:57;96616.59;;;-2.39;79.74
30110;BME280;14965;50.660;13.226;2023-02-05T08:41:23;96620.31;;;-2.26;79.32
30110;BME280;14965;50.660;13.226;2023-02-05T08:43:50;96610.19;;;-2.12;79.69
30110;BME280;14965;50.660;13.226;2023-02-05T08:46:20;96604.47;;;-2.02;79.45
30110;BME280;14965;50.660;13.226;2023-02-05T08:48:47;96602.75;;;-1.89;79.56
30110;BME280;14965;50.660;13.226;2023-02-05T08:51:15;96603.09;;;-1.82;79.15
30110;BME280;14965;50.660;13.226;2023-02-05T08:53:41;96607.72;;;-1.73;79.15
30110;BME280;14965;50.660;13.226;2023-02-05T08:56:07;96605.00;;;-1.82;77.73
30110;BME280;14965;50.660;13.226;2023-02-05T08:58:33;96612.34;;;-1.83;78.14
30110;BME280;14965;50.660;13.226;2023-02-05T09:01:00;96615.06;;;-1.74;78.28
30110;BME280;14965;50.660;13.226;2023-02-05T09:03:28;96600.72;;;-1.74;77.41
30110;BME280;14965;50.660;13.226;2023-02-05T09:05:54;96591.94;;;-1.71;77.47
30110;BME280;14965;50.660;13.226;2023-02-05T09:08:21;96597.69;;;-1.64;77.51
30110;BME280;14965;50.660;13.226;2023-02-05T09:10:48;96597.06;;;-1.44;77.90
30110;BME280;14965;50.660;13.226;2023-02-05T09:13:13;96586.22;;;-1.27;77.00
30110;BME280;14965;50.660;13.226;2023-02-05T09:15:41;96594.84;;;-1.16;76.41
30110;BME280;14965;50.660;13.226;2023-02-05T09:18:07;96577.75;;;-1.08;75.75
30110;BME280;14965;50.660;13.226;2023-02-05T09:20:33;96579.00;;;-0.96;75.53
30110;BME280;14965;50.660;13.226;2023-02-05T09:22:59;96576.56;;;-0.81;74.97
30110;BME280;14965;50.660;13.226;2023-02-05T09:25:26;96559.81;;;-0.74;73.63
30110;BME280;14965;50.660;13.226;2023-02-05T09:27:53;96554.19;;;-0.69;73.24
30110;BME280;14965;50.660;13.226;2023-02-05T09:30:22;96549.72;;;-0.65;72.55
30110;BME280;14965;50.660;13.226;2023-02-05T09:32:49;96551.66;;;-0.65;71.87
30110;BME280;14965;50.660;13.226;2023-02-05T09:35:15;96556.56;;;-0.59;72.51
30110;BME280;14965;50.660;13.226;2023-02-05T09:37:44;96549.22;;;-0.58;71.54
30110;BME280;14965;50.660;13.226;2023-02-05T09:40:20;96558.16;;;-0.58;71.96
30110;BME280;14965;50.660;13.226;2023-02-05T09:43:44;96547.72;;;-0.47;71.25
30110;BME280;14965;50.660;13.226;2023-02-05T09:46:49;96549.34;;;-0.55;71.79
30110;BME280;14965;50.660;13.226;2023-02-05T09:52:59;96543.81;;;-0.29;72.94
30110;BME280;14965;50.660;13.226;2023-02-05T09:55:30;96552.72;;;-0.19;72.77
30110;BME280;14965;50.660;13.226;2023-02-05T09:58:02;96550.28;;;-0.12;71.40
30110;BME280;14965;50.660;13.226;2023-02-05T10:00:44;96546.59;;;-0.08;71.18
30110;BME280;14965;50.660;13.226;2023-02-05T10:03:22;96538.59;;;-0.04;70.83
30110;BME280;14965;50.660;13.226;2023-02-05T10:06:06;96532.16;;;0.01;70.08
30110;BME280;14965;50.660;13.226;2023-02-05T10:08:46;96541.09;;;0.01;70.34
30110;BME280;14965;50.660;13.226;2023-02-05T10:11:26;96539.31;;;0.05;70.29
30110;BME280;14965;50.660;13.226;2023-02-05T10:14:04;96540.06;;;0.14;69.75
30110;BME280;14965;50.660;13.226;2023-02-05T10:17:13;96545.88;;;0.25;69.47
30110;BME280;14965;50.660;13.226;2023-02-05T10:20:02;96536.41;;;0.31;69.09
30110;BME280;14965;50.660;13.226;2023-02-05T10:22:42;96535.47;;;0.27;67.45
30110;BME280;14965;50.660;13.226;2023-02-05T10:25:35;96527.59;;;0.34;67.88
30110;BME280;14965;50.660;13.226;2023-02-05T10:28:17;96529.72;;;0.29;66.90
30110;BME280;14965;50.660;13.226;2023-02-05T10:30:54;96518.13;;;0.19;67.40
30110;BME280;14965;50.660;13.226;2023-02-05T10:33:40;96523.94;;;0.09;67.63
30110;BME280;14965;50.660;13.226;2023-02-05T10:36:08;96525.34;;;0.15;67.49
30110;BME280;14965;50.660;13.226;2023-02-05T10:38:41;96524.09;;;0.13;68.35
30110;BME280;14965;50.660;13.226;2023-02-05T10:41:21;96532.34;;;0.16;68.48
30110;BME280;14965;50.660;13.226;2023-02-05T10:43:58;96530.78;;;0.36;67.89
30110;BME280;14965;50.660;13.226;2023-02-05T10:46:33;96529.25;;;0.47;67.47
30110;BME280;14965;50.660;13.226;2023-02-05T10:49:10;96531.31;;;0.51;68.40
30110;BME280;14965;50.660;13.226;2023-02-05T10:51:41;96525.97;;;0.54;68.00
30110;BME280;14965;50.660;13.226;2023-02-05T10:54:19;96523.59;;;0.53;67.72
30110;BME280;14965;50.660;13.226;2023-02-05T10:56:48;96523.31;;;0.66;68.61
30110;BME280;14965;50.660;13.226;2023-02-05T10:59:21;96522.13;;;0.76;68.73
30110;BME280;14965;50.660;13.226;2023-02-05T11:01:49;96508.75;;;0.83;67.67
30110;BME280;14965;50.660;13.226;2023-02-05T11:04:28;96519.09;;;0.90;65.37
30110;BME280;14965;50.660;13.226;2023-02-05T11:06:57;96505.63;;;0.93;65.87
30110;BME280;14965;50.660;13.226;2023-02-05T11:09:30;96503.03;;;0.97;66.15
30110;BME280;14965;50.660;13.226;2023-02-05T11:11:59;96504.28;;;0.99;66.21
30110;BME280;14965;50.660;13.226;2023-02-05T11:14:32;96498.00;;;0.87;66.29
30110;BME280;14965;50.660;13.226;2023-02-05T11:17:07;96490.59;;;0.63;66.30
30110;BME280;14965;50.660;13.226;2023-02-05T11:19:35;96491.56;;;0.58;67.13
30110;BME280;14965;50.660;13.226;2023-02-05T11:22:03;96488.06;;;0.58;67.80
30110;BME280;14965;50.660;13.226;2023-02-05T11:24:32;96478.78;;;0.59;67.87
30110;BME280;14965;50.660;13.226;2023-02-05T11:27:26;96484.75;;;0.52;68.52
30110;BME280;14965;50.660;13.226;2023-02-05T11:29:53;96473.66;;;0.57;69.36
30110;BME280;14965;50.660;13.226;2023-02-05T11:32:20;96473.06;;;0.72;68.43
30110;BME280;14965;50.660;13.226;2023-02-05T11:34:47;96468.19;;;0.78;67.07
30110;BME280;14965;50.660;13.226;2023-02-05T11:37:16;96472.38;;;0.76;66.82
30110;BME280;14965;50.660;13.226;2023-02-05T11:39:45;96468.31;;;0.82;67.99
30110;BME280;14965;50.660;13.226;2023-02-05T11:42:21;96476.50;;;0.94;68.27
30110;BME280;14965;50.660;13.226;2023-02-05T11:44:51;96478.91;;;1.08;68.22
30110;BME280;14965;50.660;13.226;2023-02-05T11:47:25;96483.22;;;1.21;68.42
30110;BME280;14965;50.660;13.226;2023-02-05T11:49:54;96482.78;;;1.19;66.22
30110;BME280;14965;50.660;13.226;2023-02-05T11:52:26;96489.13;;;1.11;65.65
30110;BME280;14965;50.660;13.226;2023-02-05T11:54:53;96486.16;;;1.16;65.48
30110;BME280;14965;50.660;13.226;2023-02-05T11:57:31;96476.66;;;1.22;65.14
30110;BME280;14965;50.660;13.226;2023-02-05T12:00:05;96481.31;;;1.34;66.59
30110;BME280;14965;50.660;13.226;2023-02-05T12:02:43;96478.38;;;1.39;64.40
30110;BME280;14965;50.660;13.226;2023-02-05T12:05:19;96478.81;;;1.29;65.23
30110;BME280;14965;50.660;13.226;2023-02-05T12:07:51;96470.31;;;1.30;65.38
30110;BME280;14965;50.660;13.226;2023-02-05T12:10:29;96469.97;;;1.32;65.43
30110;BME280;14965;50.660;13.226;2023-02-05T12:13:07;96478.16;;;1.32;65.77
30110;BME280;14965;50.660;13.226;2023-02-05T12:15:45;96471.25;;;1.34;66.23
30110;BME280;14965;50.660;13.226;2023-02-05T12:18:29;96472.47;;;1.37;65.49
30110;BME280;14965;50.660;13.226;2023-02-05T12:21:19;96468.59;;;1.38;65.58
30110;BME280;14965;50.660;13.226;2023-02-05T12:24:13;96466.34;;;1.40;64.92
30110;BME280;14965;50.660;13.226;2023-02-05T12:26:44;96464.31;;;1.37;64.42
30110;BME280;14965;50.660;13.226;2023-02-05T12:29:38;96461.59;;;1.37;64.89
30110;BME280;14965;50.660;13.226;2023-02-05T12:32:20;96461.34;;;1.42;64.78
30110;BME280;14965;50.660;13.226;2023-02-05T12:35:12;96462.06;;;1.39;63.70
30110;BME280;14965;50.660;13.226;2023-02-05T12:37:50;96450.69;;;1.37;62.88
30110;BME280;14965;50.660;13.226;2023-02-05T12:40:38;96455.13;;;1.41;63.45
30110;BME280;14965;50.660;13.226;2023-02-05T12:43:23;96446.50;;;1.39;65.09
30110;BME280;14965;50.660;13.226;2023-02-05T12:46:06;96448.75;;;1.37;65.96
30110;BME280;14965;50.660;13.226;2023-02-05T12:48:56;96436.19;;;1.33;66.71
30110;BME280;14965;50.660;13.226;2023-02-05T12:51:41;96447.53;;;1.22;67.30
30110;BME280;14965;50.660;13.226;2023-02-05T12:54:33;96441.84;;;1.15;68.64
30110;BME280;14965;50.660;13.226;2023-02-05T12:57:07;96445.13;;;1.09;69.48
30110;BME280;14965;50.660;13.226;2023-02-05T12:59:39;96444.53;;;0.91;69.22
30110;BME280;14965;50.660;13.226;2023-02-05T13:02:22;96441.47;;;0.80;70.42
30110;BME280;14965;50.660;13.226;2023-02-05T13:04:59;96443.22;;;0.64;69.70
30110;BME280;14965;50.660;13.226;2023-02-05T13:07:35;96444.44;;;0.54;71.18
30110;BME280;14965;50.660;13.226;2023-02-05T13:10:13;96437.16;;;0.46;71.49
30110;BME280;14965;50.660;13.226;2023-02-05T13:12:45;96441.44;;;0.35;71.76
30110;BME280;14965;50.660;13.226;2023-02-05T13:15:17;96434.06;;;0.35;72.62